createdAt,value
2016-11-26T00:00:01.646Z,995.06
2016-11-26T00:01:01.675Z,995.05
2016-11-26T00:02:01.707Z,995.1
2016-11-26T00:03:01.736Z,995.09
2016-11-26T00:04:01.816Z,995.06
2016-11-26T00:05:01.790Z,995.07
2016-11-26T00:06:01.819Z,995.02
2016-11-26T00:07:01.848Z,995.06
2016-11-26T00:08:01.872Z,995.08
2016-11-26T00:09:01.901Z,995.09
2016-11-26T00:10:01.924Z,995.08
2016-11-26T00:11:01.958Z,995.05
2016-11-26T00:12:01.978Z,995.03
2016-11-26T00:13:02.007Z,995.02
2016-11-26T00:14:02.036Z,995.06
2016-11-26T00:15:02.063Z,995.08
2016-11-26T00:16:02.094Z,995.07
2016-11-26T00:17:02.118Z,995.07
2016-11-26T00:18:02.151Z,995.11
2016-11-26T00:19:02.179Z,995.06
2016-11-26T00:20:02.206Z,995.08
2016-11-26T00:21:02.229Z,995.05
2016-11-26T00:22:02.262Z,995.09
2016-11-26T00:23:02.286Z,995.06
2016-11-26T00:24:02.320Z,995.01
2016-11-26T00:25:02.340Z,995.04
2016-11-26T00:26:02.369Z,995.05
2016-11-26T00:27:02.402Z,995.06
2016-11-26T00:28:02.426Z,995.03
2016-11-26T00:29:02.455Z,995.06
2016-11-26T00:30:02.479Z,995.03
2016-11-26T00:31:02.514Z,995.03
2016-11-26T00:32:02.537Z,995.05
2016-11-26T00:33:02.565Z,995
2016-11-26T00:34:02.596Z,995.01
2016-11-26T00:35:02.623Z,995.03
2016-11-26T00:36:02.656Z,995
2016-11-26T00:37:02.681Z,995.01
2016-11-26T00:38:02.705Z,995.04
2016-11-26T00:39:02.737Z,995
2016-11-26T00:40:02.762Z,994.99
2016-11-26T00:41:02.787Z,995.02
2016-11-26T00:42:02.817Z,994.97
2016-11-26T00:43:02.849Z,995.01
2016-11-26T00:44:02.872Z,994.99
2016-11-26T00:45:02.898Z,995.04
2016-11-26T00:46:02.926Z,995.04
2016-11-26T00:47:02.955Z,995.02
2016-11-26T00:48:02.984Z,995.03
2016-11-26T00:49:03.009Z,995.04
2016-11-26T00:50:03.037Z,995.03
2016-11-26T00:51:03.065Z,995.06
2016-11-26T00:52:03.098Z,995.05
2016-11-26T00:53:03.123Z,995.04
2016-11-26T00:54:03.148Z,995.04
2016-11-26T00:55:03.172Z,994.96
2016-11-26T00:56:03.209Z,994.94
2016-11-26T00:57:03.234Z,994.92
2016-11-26T00:58:03.262Z,994.91
2016-11-26T00:59:03.292Z,994.92
2016-11-26T01:00:03.316Z,994.93
2016-11-26T01:01:03.345Z,994.95
2016-11-26T01:02:03.378Z,994.95
2016-11-26T01:03:03.402Z,994.89
2016-11-26T01:04:03.429Z,994.94
2016-11-26T01:05:03.460Z,994.91
2016-11-26T01:06:03.476Z,994.94
2016-11-26T01:07:03.514Z,994.95
2016-11-26T01:08:03.537Z,994.99
2016-11-26T01:09:03.568Z,994.93
2016-11-26T01:10:03.592Z,994.98
2016-11-26T01:11:03.624Z,994.99
2016-11-26T01:12:03.653Z,994.99
2016-11-26T01:13:03.678Z,994.97
2016-11-26T01:14:03.705Z,995.02
2016-11-26T01:15:03.735Z,995
2016-11-26T01:16:03.764Z,995
2016-11-26T01:17:03.788Z,995.02
2016-11-26T01:18:03.813Z,995.04
2016-11-26T01:19:03.843Z,995.02
2016-11-26T01:20:03.874Z,995.02
2016-11-26T01:21:03.899Z,995
2016-11-26T01:22:03.924Z,994.98
2016-11-26T01:23:03.958Z,995
2016-11-26T01:24:03.988Z,994.99
2016-11-26T01:25:04.015Z,995.07
2016-11-26T01:26:04.035Z,995.05
2016-11-26T01:27:04.067Z,995.02
2016-11-26T01:28:04.096Z,995.02
2016-11-26T01:29:04.125Z,995.05
2016-11-26T01:30:04.150Z,995.07
2016-11-26T01:31:04.175Z,994.99
2016-11-26T01:32:04.206Z,995.03
2016-11-26T01:33:04.236Z,995.01
2016-11-26T01:34:04.256Z,994.98
2016-11-26T01:35:04.290Z,995.03
2016-11-26T01:36:04.314Z,995.01
2016-11-26T01:37:04.347Z,995.07
2016-11-26T01:38:04.372Z,995.07
2016-11-26T01:39:04.401Z,995.07
2016-11-26T01:40:04.427Z,995.07
2016-11-26T01:41:04.455Z,995.07
2016-11-26T01:42:04.482Z,995.04
2016-11-26T01:43:04.512Z,995.05
2016-11-26T01:44:04.540Z,995.01
2016-11-26T01:45:04.564Z,994.99
2016-11-26T01:46:04.593Z,994.99
2016-11-26T01:47:04.622Z,995.02
2016-11-26T01:48:04.646Z,995.04
2016-11-26T01:49:04.671Z,995.06
2016-11-26T01:50:04.708Z,995.04
2016-11-26T01:51:04.733Z,995.07
2016-11-26T01:52:04.759Z,995.05
2016-11-26T01:53:04.783Z,995.02
2016-11-26T01:54:04.811Z,995.02
2016-11-26T01:55:04.843Z,995.02
2016-11-26T01:56:04.863Z,995.03
2016-11-26T01:57:04.893Z,994.97
2016-11-26T01:58:04.922Z,995.01
2016-11-26T01:59:04.955Z,995.01
2016-11-26T02:00:04.976Z,995.01
2016-11-26T02:01:05.000Z,995
2016-11-26T02:02:05.035Z,995
2016-11-26T02:03:05.063Z,995.01
2016-11-26T02:04:05.092Z,995.04
2016-11-26T02:05:05.119Z,995.03
2016-11-26T02:06:05.144Z,995.07
2016-11-26T02:07:05.172Z,995.02
2016-11-26T02:08:05.196Z,995.01
2016-11-26T02:09:05.224Z,995.03
2016-11-26T02:10:05.254Z,994.97
2016-11-26T02:11:05.285Z,994.98
2016-11-26T02:12:05.308Z,995.04
2016-11-26T02:13:05.337Z,995.01
2016-11-26T02:14:05.369Z,995
2016-11-26T02:15:05.390Z,995.02
2016-11-26T02:16:05.419Z,995.06
2016-11-26T02:17:05.447Z,995
2016-11-26T02:18:05.481Z,994.99
2016-11-26T02:19:05.505Z,994.96
2016-11-26T02:20:05.530Z,994.95
2016-11-26T02:21:05.559Z,994.99
2016-11-26T02:22:05.587Z,994.94
2016-11-26T02:23:05.615Z,994.97
2016-11-26T02:24:05.645Z,995
2016-11-26T02:25:05.669Z,995.01
2016-11-26T02:26:05.698Z,994.96
2016-11-26T02:27:05.730Z,994.98
2016-11-26T02:28:05.756Z,995.01
2016-11-26T02:29:05.776Z,994.98
2016-11-26T02:30:05.805Z,994.96
2016-11-26T02:31:05.836Z,994.98
2016-11-26T02:32:05.866Z,994.95
2016-11-26T02:33:05.891Z,994.93
2016-11-26T02:34:05.919Z,994.96
2016-11-26T02:35:05.948Z,994.96
2016-11-26T02:36:05.970Z,994.94
2016-11-26T02:37:06.001Z,994.93
2016-11-26T02:38:06.031Z,994.91
2016-11-26T02:39:06.053Z,994.94
2016-11-26T02:40:06.080Z,994.9
2016-11-26T02:41:06.112Z,994.88
2016-11-26T02:42:06.141Z,994.88
2016-11-26T02:43:06.166Z,994.89
2016-11-26T02:44:06.187Z,994.88
2016-11-26T02:45:06.223Z,994.83
2016-11-26T02:46:06.244Z,994.88
2016-11-26T02:47:06.272Z,994.88
2016-11-26T02:48:06.305Z,994.91
2016-11-26T02:49:06.326Z,994.9
2016-11-26T02:50:06.355Z,994.93
2016-11-26T02:51:06.388Z,994.89
2016-11-26T02:52:06.409Z,994.92
2016-11-26T02:53:06.441Z,994.93
2016-11-26T02:54:06.467Z,994.96
2016-11-26T02:55:06.495Z,994.93
2016-11-26T02:56:06.521Z,994.94
2016-11-26T02:57:06.548Z,994.95
2016-11-26T02:58:06.581Z,994.92
2016-11-26T02:59:06.605Z,994.92
2016-11-26T03:00:06.635Z,994.92
2016-11-26T03:01:06.663Z,994.92
2016-11-26T03:02:06.692Z,994.9
2016-11-26T03:03:06.712Z,994.9
2016-11-26T03:04:06.747Z,994.89
2016-11-26T03:05:06.772Z,994.88
2016-11-26T03:06:06.803Z,994.9
2016-11-26T03:07:06.828Z,994.89
2016-11-26T03:08:06.852Z,994.9
2016-11-26T03:09:06.886Z,994.86
2016-11-26T03:10:06.910Z,994.83
2016-11-26T03:11:06.935Z,994.88
2016-11-26T03:12:06.968Z,994.87
2016-11-26T03:13:06.988Z,994.85
2016-11-26T03:14:07.017Z,994.88
2016-11-26T03:15:07.041Z,994.87
2016-11-26T03:16:07.078Z,994.88
2016-11-26T03:17:07.099Z,994.85
2016-11-26T03:18:07.130Z,994.82
2016-11-26T03:19:07.152Z,994.82
2016-11-26T03:20:07.185Z,994.83
2016-11-26T03:21:07.214Z,994.82
2016-11-26T03:22:07.238Z,994.78
2016-11-26T03:23:07.263Z,994.8
2016-11-26T03:24:07.291Z,994.75
2016-11-26T03:25:07.320Z,994.75
2016-11-26T03:26:07.354Z,994.78
2016-11-26T03:27:07.377Z,994.77
2016-11-26T03:28:07.406Z,994.77
2016-11-26T03:29:07.436Z,994.77
2016-11-26T03:30:07.456Z,994.8
2016-11-26T03:31:07.484Z,994.75
2016-11-26T03:32:07.517Z,994.76
2016-11-26T03:33:07.542Z,994.72
2016-11-26T03:34:07.569Z,994.73
2016-11-26T03:35:07.595Z,994.71
2016-11-26T03:36:07.623Z,994.71
2016-11-26T03:37:07.653Z,994.71
2016-11-26T03:38:07.683Z,994.71
2016-11-26T03:39:07.707Z,994.71
2016-11-26T03:40:07.733Z,994.73
2016-11-26T03:41:07.759Z,994.73
2016-11-26T03:42:07.788Z,994.72
2016-11-26T03:43:07.815Z,994.72
2016-11-26T03:44:07.845Z,994.69
2016-11-26T03:45:07.875Z,994.74
2016-11-26T03:46:07.899Z,994.75
2016-11-26T03:47:07.924Z,994.73
2016-11-26T03:48:07.957Z,994.75
2016-11-26T03:49:07.982Z,994.76
2016-11-26T03:50:08.015Z,994.68
2016-11-26T03:51:08.039Z,994.71
2016-11-26T03:52:08.063Z,994.63
2016-11-26T03:53:08.097Z,994.66
2016-11-26T03:54:08.125Z,994.65
2016-11-26T03:55:08.150Z,994.66
2016-11-26T03:56:08.165Z,994.65
2016-11-26T03:57:08.203Z,994.65
2016-11-26T03:58:08.224Z,994.66
2016-11-26T03:59:08.255Z,994.69
2016-11-26T04:00:08.281Z,994.7
2016-11-26T04:01:08.314Z,994.67
2016-11-26T04:02:08.339Z,994.66
2016-11-26T04:03:08.364Z,994.66
2016-11-26T04:04:08.395Z,994.62
2016-11-26T04:05:08.421Z,994.65
2016-11-26T04:06:08.446Z,994.64
2016-11-26T04:07:08.480Z,994.63
2016-11-26T04:08:08.506Z,994.64
2016-11-26T04:09:08.529Z,994.67
2016-11-26T04:10:08.557Z,994.64
2016-11-26T04:11:08.590Z,994.6
2016-11-26T04:12:08.609Z,994.62
2016-11-26T04:13:08.639Z,994.63
2016-11-26T04:14:08.666Z,994.6
2016-11-26T04:15:08.692Z,994.63
2016-11-26T04:16:08.725Z,994.62
2016-11-26T04:17:08.749Z,994.59
2016-11-26T04:18:08.770Z,994.56
2016-11-26T04:19:08.805Z,994.58
2016-11-26T04:20:08.832Z,994.54
2016-11-26T04:21:08.857Z,994.55
2016-11-26T04:22:08.890Z,994.51
2016-11-26T04:23:08.914Z,994.54
2016-11-26T04:24:08.944Z,994.54
2016-11-26T04:25:08.967Z,994.53
2016-11-26T04:26:08.997Z,994.58
2016-11-26T04:27:09.025Z,994.59
2016-11-26T04:28:09.052Z,994.54
2016-11-26T04:29:09.081Z,994.55
2016-11-26T04:30:09.102Z,994.52
2016-11-26T04:31:09.132Z,994.5
2016-11-26T04:32:09.165Z,994.52
2016-11-26T04:33:09.191Z,994.52
2016-11-26T04:34:09.219Z,994.5
2016-11-26T04:35:09.239Z,994.52
2016-11-26T04:36:09.268Z,994.55
2016-11-26T04:37:09.300Z,994.5
2016-11-26T04:38:09.321Z,994.57
2016-11-26T04:39:09.350Z,994.53
2016-11-26T04:40:09.379Z,994.51
2016-11-26T04:41:09.416Z,994.46
2016-11-26T04:42:09.432Z,994.48
2016-11-26T04:43:09.464Z,994.43
2016-11-26T04:44:09.493Z,994.43
2016-11-26T04:45:09.518Z,994.45
2016-11-26T04:46:09.549Z,994.47
2016-11-26T04:47:09.576Z,994.5
2016-11-26T04:48:09.598Z,994.45
2016-11-26T04:49:09.630Z,994.5
2016-11-26T04:50:09.658Z,994.49
2016-11-26T04:51:09.683Z,994.44
2016-11-26T04:52:09.707Z,994.48
2016-11-26T04:53:09.736Z,994.45
2016-11-26T04:54:09.766Z,994.43
2016-11-26T04:55:09.795Z,994.47
2016-11-26T04:56:09.823Z,994.47
2016-11-26T04:57:09.848Z,994.46
2016-11-26T04:58:09.872Z,994.46
2016-11-26T04:59:09.901Z,994.41
2016-11-26T05:00:09.926Z,994.39
2016-11-26T05:01:09.955Z,994.43
2016-11-26T05:02:09.980Z,994.43
2016-11-26T05:03:10.009Z,994.39
2016-11-26T05:04:10.041Z,994.45
2016-11-26T05:05:10.061Z,994.41
2016-11-26T05:06:10.098Z,994.42
2016-11-26T05:07:10.119Z,994.45
2016-11-26T05:08:10.149Z,994.43
2016-11-26T05:09:10.177Z,994.44
2016-11-26T05:10:10.205Z,994.43
2016-11-26T05:11:10.229Z,994.38
2016-11-26T05:12:10.254Z,994.42
2016-11-26T05:13:10.280Z,994.39
2016-11-26T05:14:10.313Z,994.4
2016-11-26T05:15:10.337Z,994.42
2016-11-26T05:16:10.357Z,994.43
2016-11-26T05:17:10.390Z,994.44
2016-11-26T05:18:10.423Z,994.46
2016-11-26T05:19:10.451Z,994.46
2016-11-26T05:20:10.472Z,994.45
2016-11-26T05:21:10.505Z,994.51
2016-11-26T05:22:10.526Z,994.51
2016-11-26T05:23:10.554Z,994.53
2016-11-26T05:24:10.582Z,994.54
2016-11-26T05:25:10.614Z,994.51
2016-11-26T05:26:10.636Z,994.5
2016-11-26T05:27:10.665Z,994.51
2016-11-26T05:28:10.695Z,994.51
2016-11-26T05:29:10.720Z,994.56
2016-11-26T05:30:10.752Z,994.54
2016-11-26T05:31:10.776Z,994.59
2016-11-26T05:32:10.805Z,994.54
2016-11-26T05:33:10.835Z,994.57
2016-11-26T05:34:10.854Z,994.59
2016-11-26T05:35:10.884Z,994.54
2016-11-26T05:36:10.908Z,994.56
2016-11-26T05:37:10.942Z,994.56
2016-11-26T05:38:10.965Z,994.59
2016-11-26T05:39:10.995Z,994.52
2016-11-26T05:40:11.023Z,994.56
2016-11-26T05:41:11.049Z,994.57
2016-11-26T05:42:11.077Z,994.52
2016-11-26T05:43:11.106Z,994.56
2016-11-26T05:44:11.130Z,994.56
2016-11-26T05:45:11.151Z,994.61
2016-11-26T05:46:11.182Z,994.61
2016-11-26T05:47:11.213Z,994.62
2016-11-26T05:48:11.238Z,994.63
2016-11-26T05:49:11.270Z,994.66
2016-11-26T05:50:11.298Z,994.71
2016-11-26T05:51:11.319Z,994.7
2016-11-26T05:52:11.348Z,994.69
2016-11-26T05:53:11.376Z,994.72
2016-11-26T05:54:11.406Z,994.73
2016-11-26T05:55:11.430Z,994.76
2016-11-26T05:56:11.459Z,994.74
2016-11-26T05:57:11.484Z,994.73
2016-11-26T05:58:11.517Z,994.67
2016-11-26T05:59:11.537Z,994.69
2016-11-26T06:00:11.566Z,994.65
2016-11-26T06:01:11.594Z,994.66
2016-11-26T06:02:11.619Z,994.65
2016-11-26T06:03:11.652Z,994.68
2016-11-26T06:04:11.681Z,994.66
2016-11-26T06:05:11.706Z,994.66
2016-11-26T06:06:11.730Z,994.66
2016-11-26T06:07:11.759Z,994.68
2016-11-26T06:08:11.792Z,994.61
2016-11-26T06:09:11.817Z,994.65
2016-11-26T06:10:11.845Z,994.64
2016-11-26T06:11:11.869Z,994.62
2016-11-26T06:12:11.894Z,994.6
2016-11-26T06:13:11.927Z,994.61
2016-11-26T06:14:11.951Z,994.54
2016-11-26T06:15:11.976Z,994.57
2016-11-26T06:16:12.009Z,994.52
2016-11-26T06:17:12.030Z,994.54
2016-11-26T06:18:12.062Z,994.54
2016-11-26T06:19:12.087Z,994.54
2016-11-26T06:20:12.116Z,994.51
2016-11-26T06:21:12.145Z,994.52
2016-11-26T06:22:12.170Z,994.51
2016-11-26T06:23:12.202Z,994.49
2016-11-26T06:24:12.226Z,994.54
2016-11-26T06:25:12.252Z,994.53
2016-11-26T06:26:12.277Z,994.56
2016-11-26T06:27:12.314Z,994.52
2016-11-26T06:28:12.333Z,994.53
2016-11-26T06:29:12.366Z,994.58
2016-11-26T06:30:12.391Z,994.58
2016-11-26T06:31:12.419Z,994.61
2016-11-26T06:32:12.444Z,994.62
2016-11-26T06:33:12.474Z,994.63
2016-11-26T06:34:12.501Z,994.62
2016-11-26T06:35:12.526Z,994.6
2016-11-26T06:36:12.560Z,994.58
2016-11-26T06:37:12.580Z,994.61
2016-11-26T06:38:12.608Z,994.58
2016-11-26T06:39:12.637Z,994.59
2016-11-26T06:40:12.665Z,994.58
2016-11-26T06:41:12.695Z,994.58
2016-11-26T06:42:12.723Z,994.56
2016-11-26T06:43:12.751Z,994.6
2016-11-26T06:44:12.777Z,994.59
2016-11-26T06:45:12.806Z,994.6
2016-11-26T06:46:12.833Z,994.59
2016-11-26T06:47:12.863Z,994.6
2016-11-26T06:48:12.888Z,994.59
2016-11-26T06:49:12.916Z,994.63
2016-11-26T06:50:12.945Z,994.64
2016-11-26T06:51:12.966Z,994.64
2016-11-26T06:52:12.998Z,994.64
2016-11-26T06:53:13.027Z,994.66
2016-11-26T06:54:13.056Z,994.66
2016-11-26T06:55:13.085Z,994.72
2016-11-26T06:56:13.104Z,994.67
2016-11-26T06:57:13.138Z,994.68
2016-11-26T06:58:13.167Z,994.67
2016-11-26T06:59:13.195Z,994.67
2016-11-26T07:00:13.215Z,994.7
2016-11-26T07:01:13.248Z,994.68
2016-11-26T07:02:13.277Z,994.7
2016-11-26T07:03:13.301Z,994.67
2016-11-26T07:04:13.331Z,994.67
2016-11-26T07:05:13.359Z,994.73
2016-11-26T07:06:13.380Z,994.68
2016-11-26T07:07:13.417Z,994.67
2016-11-26T07:08:13.437Z,994.71
2016-11-26T07:09:13.466Z,994.71
2016-11-26T07:10:13.499Z,994.71
2016-11-26T07:11:13.528Z,994.75
2016-11-26T07:12:13.548Z,994.75
2016-11-26T07:13:13.581Z,994.75
2016-11-26T07:14:13.611Z,994.74
2016-11-26T07:15:13.630Z,994.73
2016-11-26T07:16:13.659Z,994.71
2016-11-26T07:17:13.691Z,994.74
2016-11-26T07:18:13.724Z,994.7
2016-11-26T07:19:13.745Z,994.67
2016-11-26T07:20:13.770Z,994.69
2016-11-26T07:21:13.799Z,994.69
2016-11-26T07:22:13.828Z,994.68
2016-11-26T07:23:13.855Z,994.73
2016-11-26T07:24:13.880Z,994.72
2016-11-26T07:25:13.908Z,994.72
2016-11-26T07:26:13.938Z,994.7
2016-11-26T07:27:13.961Z,994.69
2016-11-26T07:28:13.990Z,994.7
2016-11-26T07:29:14.020Z,994.7
2016-11-26T07:30:14.052Z,994.68
2016-11-26T07:31:14.077Z,994.65
2016-11-26T07:32:14.105Z,994.65
2016-11-26T07:33:14.130Z,994.64
2016-11-26T07:34:14.159Z,994.66
2016-11-26T07:35:14.186Z,994.66
2016-11-26T07:36:14.213Z,994.62
2016-11-26T07:37:14.240Z,994.63
2016-11-26T07:38:14.274Z,994.63
2016-11-26T07:39:14.299Z,994.59
2016-11-26T07:40:14.323Z,994.62
2016-11-26T07:41:14.352Z,994.64
2016-11-26T07:42:14.382Z,994.61
2016-11-26T07:43:14.410Z,994.57
2016-11-26T07:44:14.434Z,994.58
2016-11-26T07:45:14.467Z,994.53
2016-11-26T07:46:14.493Z,994.57
2016-11-26T07:47:14.525Z,994.61
2016-11-26T07:48:14.549Z,994.6
2016-11-26T07:49:14.578Z,994.55
2016-11-26T07:50:14.602Z,994.58
2016-11-26T07:51:14.632Z,994.54
2016-11-26T07:52:14.660Z,994.54
2016-11-26T07:53:14.688Z,994.51
2016-11-26T07:54:14.718Z,994.49
2016-11-26T07:55:14.745Z,994.45
2016-11-26T07:56:14.767Z,994.45
2016-11-26T07:57:14.796Z,994.46
2016-11-26T07:58:14.829Z,994.44
2016-11-26T07:59:14.849Z,994.45
2016-11-26T08:00:14.878Z,994.48
2016-11-26T08:01:14.906Z,994.43
2016-11-26T08:02:14.939Z,994.41
2016-11-26T08:03:14.960Z,994.43
2016-11-26T08:04:14.989Z,994.41
2016-11-26T08:05:15.018Z,994.43
2016-11-26T08:06:15.046Z,994.49
2016-11-26T08:07:15.075Z,994.44
2016-11-26T08:08:15.099Z,994.44
2016-11-26T08:09:15.133Z,994.44
2016-11-26T08:10:15.159Z,994.44
2016-11-26T08:11:15.182Z,994.47
2016-11-26T08:12:15.208Z,994.49
2016-11-26T08:13:15.243Z,994.52
2016-11-26T08:14:15.272Z,994.49
2016-11-26T08:15:15.298Z,994.5
2016-11-26T08:16:15.321Z,994.44
2016-11-26T08:17:15.355Z,994.43
2016-11-26T08:18:15.375Z,994.43
2016-11-26T08:19:15.404Z,994.46
2016-11-26T08:20:15.436Z,994.48
2016-11-26T08:21:15.465Z,994.51
2016-11-26T08:22:15.485Z,994.5
2016-11-26T08:23:15.514Z,994.55
2016-11-26T08:24:15.543Z,994.56
2016-11-26T08:25:15.572Z,994.55
2016-11-26T08:26:15.596Z,994.58
2016-11-26T08:27:15.630Z,994.53
2016-11-26T08:28:15.654Z,994.52
2016-11-26T08:29:15.683Z,994.58
2016-11-26T08:30:15.711Z,994.56
2016-11-26T08:31:15.741Z,994.55
2016-11-26T08:32:15.765Z,994.53
2016-11-26T08:33:15.793Z,994.55
2016-11-26T08:34:15.826Z,994.54
2016-11-26T08:35:15.849Z,994.53
2016-11-26T08:36:15.876Z,994.54
2016-11-26T08:37:15.908Z,994.56
2016-11-26T08:38:15.933Z,994.55
2016-11-26T08:39:15.958Z,994.55
2016-11-26T08:40:15.990Z,994.56
2016-11-26T08:41:16.014Z,994.52
2016-11-26T08:42:16.044Z,994.57
2016-11-26T08:43:16.074Z,994.59
2016-11-26T08:44:16.103Z,994.57
2016-11-26T08:45:16.128Z,994.57
2016-11-26T08:46:16.152Z,994.6
2016-11-26T08:47:16.180Z,994.6
2016-11-26T08:48:16.208Z,994.6
2016-11-26T08:49:16.242Z,994.57
2016-11-26T08:50:16.263Z,994.58
2016-11-26T08:51:16.291Z,994.63
2016-11-26T08:52:16.320Z,994.58
2016-11-26T08:53:16.349Z,994.57
2016-11-26T08:54:16.377Z,994.52
2016-11-26T08:55:16.406Z,994.56
2016-11-26T08:56:16.431Z,994.6
2016-11-26T08:57:16.459Z,994.62
2016-11-26T08:58:16.485Z,994.58
2016-11-26T08:59:16.515Z,994.64
2016-11-26T09:00:16.542Z,994.65
2016-11-26T09:01:16.567Z,994.63
2016-11-26T09:02:16.595Z,994.65
2016-11-26T09:03:16.624Z,994.71
2016-11-26T09:04:16.657Z,994.67
2016-11-26T09:05:16.677Z,994.68
2016-11-26T09:06:16.706Z,994.7
2016-11-26T09:07:16.738Z,994.74
2016-11-26T09:08:16.763Z,994.73
2016-11-26T09:09:16.792Z,994.71
2016-11-26T09:10:16.821Z,994.7
2016-11-26T09:11:16.848Z,994.69
2016-11-26T09:12:16.877Z,994.72
2016-11-26T09:13:16.898Z,994.73
2016-11-26T09:14:16.931Z,994.71
2016-11-26T09:15:16.952Z,994.71
2016-11-26T09:16:16.988Z,994.72
2016-11-26T09:17:17.012Z,994.74
2016-11-26T09:18:17.042Z,994.78
2016-11-26T09:19:17.067Z,994.71
2016-11-26T09:20:17.097Z,994.73
2016-11-26T09:21:17.127Z,994.75
2016-11-26T09:22:17.152Z,994.73
2016-11-26T09:23:17.186Z,994.72
2016-11-26T09:24:17.210Z,994.73
2016-11-26T09:25:17.234Z,994.77
2016-11-26T09:26:17.263Z,994.75
2016-11-26T09:27:17.291Z,994.77
2016-11-26T09:28:17.320Z,994.74
2016-11-26T09:29:17.349Z,994.77
2016-11-26T09:30:17.378Z,994.78
2016-11-26T09:31:17.399Z,994.76
2016-11-26T09:32:17.431Z,994.73
2016-11-26T09:33:17.459Z,994.78
2016-11-26T09:34:17.484Z,994.72
2016-11-26T09:35:17.514Z,994.8
2016-11-26T09:36:17.540Z,994.79
2016-11-26T09:37:17.571Z,994.77
2016-11-26T09:38:17.594Z,994.77
2016-11-26T09:39:17.628Z,994.76
2016-11-26T09:40:17.657Z,994.79
2016-11-26T09:41:17.677Z,994.79
2016-11-26T09:42:17.707Z,994.78
2016-11-26T09:43:17.739Z,994.79
2016-11-26T09:44:17.767Z,994.8
2016-11-26T09:45:17.792Z,994.83
2016-11-26T09:46:17.819Z,994.81
2016-11-26T09:47:17.845Z,994.76
2016-11-26T09:48:17.879Z,994.73
2016-11-26T09:49:17.902Z,994.76
2016-11-26T09:50:17.932Z,994.76
2016-11-26T09:51:17.960Z,994.76
2016-11-26T09:52:17.989Z,994.69
2016-11-26T09:53:18.018Z,994.69
2016-11-26T09:54:18.047Z,994.7
2016-11-26T09:55:18.072Z,994.7
2016-11-26T09:56:18.097Z,994.69
2016-11-26T09:57:18.125Z,994.67
2016-11-26T09:58:18.154Z,994.7
2016-11-26T09:59:18.186Z,994.68
2016-11-26T10:00:18.207Z,994.73
2016-11-26T10:01:18.246Z,994.75
2016-11-26T10:02:18.268Z,994.74
2016-11-26T10:03:18.297Z,994.75
2016-11-26T10:04:18.322Z,994.76
2016-11-26T10:05:18.351Z,994.78
2016-11-26T10:06:18.379Z,994.78
2016-11-26T10:07:18.409Z,994.79
2016-11-26T10:08:18.437Z,994.83
2016-11-26T10:09:18.462Z,994.81
2016-11-26T10:10:18.492Z,994.81
2016-11-26T10:11:18.519Z,994.76
2016-11-26T10:12:18.552Z,994.79
2016-11-26T10:13:18.573Z,994.83
2016-11-26T10:14:18.606Z,994.78
2016-11-26T10:15:18.631Z,994.77
2016-11-26T10:16:18.659Z,994.81
2016-11-26T10:17:18.692Z,994.76
2016-11-26T10:18:18.717Z,994.79
2016-11-26T10:19:18.745Z,994.78
2016-11-26T10:20:18.774Z,994.79
2016-11-26T10:21:18.799Z,994.8
2016-11-26T10:22:18.832Z,994.81
2016-11-26T10:23:18.861Z,994.82
2016-11-26T10:24:18.886Z,994.8
2016-11-26T10:25:18.918Z,994.78
2016-11-26T10:26:18.943Z,994.76
2016-11-26T10:27:18.972Z,994.76
2016-11-26T10:28:18.997Z,994.79
2016-11-26T10:29:19.030Z,994.74
2016-11-26T10:30:19.055Z,994.76
2016-11-26T10:31:19.091Z,994.75
2016-11-26T10:32:19.116Z,994.79
2016-11-26T10:33:19.140Z,994.76
2016-11-26T10:34:19.170Z,994.78
2016-11-26T10:35:19.199Z,994.76
2016-11-26T10:36:19.228Z,994.74
2016-11-26T10:37:19.251Z,994.76
2016-11-26T10:38:19.285Z,994.74
2016-11-26T10:39:19.313Z,994.73
2016-11-26T10:40:19.338Z,994.76
2016-11-26T10:41:19.367Z,994.7
2016-11-26T10:42:19.396Z,994.71
2016-11-26T10:43:19.528Z,994.7
2016-11-26T10:44:19.441Z,994.7
2016-11-26T10:45:19.481Z,994.68
2016-11-26T10:46:19.506Z,994.68
2016-11-26T10:47:19.535Z,994.69
2016-11-26T10:48:19.563Z,994.66
2016-11-26T10:49:19.593Z,994.66
2016-11-26T10:50:19.621Z,994.65
2016-11-26T10:51:19.646Z,994.66
2016-11-26T10:52:19.675Z,994.63
2016-11-26T10:53:19.703Z,994.66
2016-11-26T10:54:19.737Z,994.66
2016-11-26T10:55:19.762Z,994.63
2016-11-26T10:56:19.786Z,994.63
2016-11-26T10:57:19.814Z,994.59
2016-11-26T10:58:19.844Z,994.6
2016-11-26T10:59:19.876Z,994.59
2016-11-26T11:00:19.905Z,994.6
2016-11-26T11:01:19.929Z,994.58
2016-11-26T11:02:19.955Z,994.56
2016-11-26T11:03:19.984Z,994.57
2016-11-26T11:04:20.012Z,994.59
2016-11-26T11:05:20.044Z,994.56
2016-11-26T11:06:20.069Z,994.55
2016-11-26T11:07:20.102Z,994.56
2016-11-26T11:08:20.126Z,994.51
2016-11-26T11:09:20.152Z,994.51
2016-11-26T11:10:20.186Z,994.49
2016-11-26T11:11:20.213Z,994.52
2016-11-26T11:12:20.243Z,994.5
2016-11-26T11:13:20.267Z,994.52
2016-11-26T11:14:20.299Z,994.53
2016-11-26T11:15:20.320Z,994.56
2016-11-26T11:16:20.360Z,994.54
2016-11-26T11:17:20.381Z,994.53
2016-11-26T11:18:20.406Z,994.51
2016-11-26T11:19:20.438Z,994.48
2016-11-26T11:20:20.467Z,994.48
2016-11-26T11:21:20.496Z,994.46
2016-11-26T11:22:20.525Z,994.46
2016-11-26T11:23:20.549Z,994.48
2016-11-26T11:24:20.583Z,994.5
2016-11-26T11:25:20.611Z,994.47
2016-11-26T11:26:20.628Z,994.45
2016-11-26T11:27:20.665Z,994.5
2016-11-26T11:28:20.690Z,994.47
2016-11-26T11:29:20.722Z,994.47
2016-11-26T11:30:20.751Z,994.5
2016-11-26T11:31:20.775Z,994.49
2016-11-26T11:32:20.804Z,994.52
2016-11-26T11:33:20.837Z,994.54
2016-11-26T11:34:20.866Z,994.51
2016-11-26T11:35:20.886Z,994.5
2016-11-26T11:36:20.920Z,994.49
2016-11-26T11:37:20.948Z,994.46
2016-11-26T11:38:20.976Z,994.48
2016-11-26T11:39:21.001Z,994.44
2016-11-26T11:40:21.034Z,994.43
2016-11-26T11:41:21.059Z,994.45
2016-11-26T11:42:21.086Z,994.45
2016-11-26T11:43:21.115Z,994.45
2016-11-26T11:44:21.145Z,994.44
2016-11-26T11:45:21.174Z,994.45
2016-11-26T11:46:21.202Z,994.49
2016-11-26T11:47:21.227Z,994.47
2016-11-26T11:48:21.259Z,994.49
2016-11-26T11:49:21.288Z,994.47
2016-11-26T11:50:21.313Z,994.48
2016-11-26T11:51:21.345Z,994.48
2016-11-26T11:52:21.370Z,994.44
2016-11-26T11:53:21.406Z,994.42
2016-11-26T11:54:21.428Z,994.43
2016-11-26T11:55:21.456Z,994.44
2016-11-26T11:56:21.485Z,994.45
2016-11-26T11:57:21.509Z,994.43
2016-11-26T11:58:21.543Z,994.41
2016-11-26T11:59:21.571Z,994.44
2016-11-26T12:00:21.600Z,994.44
2016-11-26T12:01:21.625Z,994.41
2016-11-26T12:02:21.653Z,994.5
2016-11-26T12:03:21.686Z,994.45
2016-11-26T12:04:21.715Z,994.45
2016-11-26T12:05:21.740Z,994.44
2016-11-26T12:06:21.768Z,994.43
2016-11-26T12:07:21.797Z,994.45
2016-11-26T12:08:21.826Z,994.41
2016-11-26T12:09:21.850Z,994.41
2016-11-26T12:10:21.883Z,994.41
2016-11-26T12:11:21.908Z,994.44
2016-11-26T12:12:21.940Z,994.39
2016-11-26T12:13:21.965Z,994.4
2016-11-26T12:14:21.997Z,994.42
2016-11-26T12:15:22.022Z,994.42
2016-11-26T12:16:22.048Z,994.41
2016-11-26T12:17:22.080Z,994.36
2016-11-26T12:18:22.105Z,994.39
2016-11-26T12:19:22.134Z,994.4
2016-11-26T12:20:22.166Z,994.39
2016-11-26T12:21:22.191Z,994.38
2016-11-26T12:22:22.228Z,994.42
2016-11-26T12:23:22.249Z,994.4
2016-11-26T12:24:22.277Z,994.39
2016-11-26T12:25:22.301Z,994.4
2016-11-26T12:26:22.330Z,994.39
2016-11-26T12:27:22.364Z,994.44
2016-11-26T12:28:22.392Z,994.44
2016-11-26T12:29:22.417Z,994.47
2016-11-26T12:30:22.449Z,994.42
2016-11-26T12:31:22.474Z,994.42